sensor_id;sensor_type;location;lat;lon;timestamp;pressure;altitude;pressure_sealevel;temperature;humidity
48630;BME280;34426;52.180;4.462;2023-02-16T00:00:39;102419.84;;;6.72;77.84
48630;BME280;34426;52.180;4.462;2023-02-16T00:03:04;102424.06;;;6.61;78.14
48630;BME280;34426;52.180;4.462;2023-02-16T00:05:33;102422.38;;;6.66;77.81
48630;BME280;34426;52.180;4.462;2023-02-16T00:07:59;102425.56;;;6.63;78.48
48630;BME280;34426;52.180;4.462;2023-02-16T00:10:29;102413.38;;;6.64;77.89
48630;BME280;34426;52.180;4.462;2023-02-16T00:12:55;102410.81;;;6.63;78.28
48630;BME280;34426;52.180;4.462;2023-02-16T00:15:21;102415.50;;;6.62;78.01
48630;BME280;34426;52.180;4.462;2023-02-16T00:17:46;102413.09;;;6.53;78.48
48630;BME280;34426;52.180;4.462;2023-02-16T00:20:14;102409.44;;;6.46;79.05
48630;BME280;34426;52.180;4.462;2023-02-16T00:22:41;102411.16;;;6.53;79.43
48630;BME280;34426;52.180;4.462;2023-02-16T00:25:06;102409.03;;;6.55;79.04
48630;BME280;34426;52.180;4.462;2023-02-16T00:27:32;102413.59;;;6.63;78.42
48630;BME280;34426;52.180;4.462;2023-02-16T00:29:58;102418.28;;;6.62;78.42
48630;BME280;34426;52.180;4.462;2023-02-16T00:32:24;102420.00;;;6.63;78.27
48630;BME280;34426;52.180;4.462;2023-02-16T00:34:49;102424.06;;;6.61;79.08
48630;BME280;34426;52.180;4.462;2023-02-16T00:37:15;102417.13;;;6.50;79.05
48630;BME280;34426;52.180;4.462;2023-02-16T00:39:42;102411.94;;;6.41;79.59
48630;BME280;34426;52.180;4.462;2023-02-16T00:42:12;102407.50;;;6.46;79.38
48630;BME280;34426;52.180;4.462;2023-02-16T00:44:42;102406.84;;;6.44;79.65
48630;BME280;34426;52.180;4.462;2023-02-16T00:47:17;102401.09;;;6.46;79.83
48630;BME280;34426;52.180;4.462;2023-02-16T00:49:43;102396.34;;;6.40;80.23
48630;BME280;34426;52.180;4.462;2023-02-16T00:52:28;102405.13;;;6.43;80.26
48630;BME280;34426;52.180;4.462;2023-02-16T00:54:57;102397.03;;;6.48;79.98
48630;BME280;34426;52.180;4.462;2023-02-16T00:57:23;102401.75;;;6.54;79.79
48630;BME280;34426;52.180;4.462;2023-02-16T00:59:54;102403.06;;;6.58;79.77
48630;BME280;34426;52.180;4.462;2023-02-16T01:02:22;102400.53;;;6.63;79.58
48630;BME280;34426;52.180;4.462;2023-02-16T01:04:47;102408.22;;;6.61;79.77
48630;BME280;34426;52.180;4.462;2023-02-16T01:07:13;102405.94;;;6.72;79.31
48630;BME280;34426;52.180;4.462;2023-02-16T01:09:40;102400.53;;;6.63;79.73
48630;BME280;34426;52.180;4.462;2023-02-16T01:12:12;102404.84;;;6.66;79.92
48630;BME280;34426;52.180;4.462;2023-02-16T01:14:38;102396.28;;;6.67;79.93
48630;BME280;34426;52.180;4.462;2023-02-16T01:17:03;102394.38;;;6.68;80.08
48630;BME280;34426;52.180;4.462;2023-02-16T01:19:29;102387.91;;;6.61;79.99
48630;BME280;34426;52.180;4.462;2023-02-16T01:21:54;102386.00;;;6.61;80.58
48630;BME280;34426;52.180;4.462;2023-02-16T01:24:20;102397.06;;;6.55;80.38
48630;BME280;34426;52.180;4.462;2023-02-16T01:26:47;102394.06;;;6.56;80.79
48630;BME280;34426;52.180;4.462;2023-02-16T01:29:16;102389.84;;;6.60;81.03
48630;BME280;34426;52.180;4.462;2023-02-16T01:31:43;102386.25;;;6.66;80.67
48630;BME280;34426;52.180;4.462;2023-02-16T01:34:09;102382.22;;;6.76;80.27
48630;BME280;34426;52.180;4.462;2023-02-16T01:36:36;102387.38;;;6.79;79.91
48630;BME280;34426;52.180;4.462;2023-02-16T01:39:02;102385.81;;;6.70;80.39
48630;BME280;34426;52.180;4.462;2023-02-16T01:41:45;102383.53;;;6.80;79.81
48630;BME280;34426;52.180;4.462;2023-02-16T01:44:20;102386.59;;;6.91;79.24
48630;BME280;34426;52.180;4.462;2023-02-16T01:46:50;102390.25;;;6.92;79.19
48630;BME280;34426;52.180;4.462;2023-02-16T01:49:18;102382.31;;;6.95;79.04
48630;BME280;34426;52.180;4.462;2023-02-16T01:51:50;102378.91;;;7.00;78.85
48630;BME280;34426;52.180;4.462;2023-02-16T01:54:20;102371.63;;;6.99;78.62
48630;BME280;34426;52.180;4.462;2023-02-16T01:56:49;102374.66;;;7.04;78.47
48630;BME280;34426;52.180;4.462;2023-02-16T01:59:28;102371.03;;;7.04;78.75
48630;BME280;34426;52.180;4.462;2023-02-16T02:01:56;102378.09;;;7.06;78.63
48630;BME280;34426;52.180;4.462;2023-02-16T02:04:26;102372.53;;;7.06;78.57
48630;BME280;34426;52.180;4.462;2023-02-16T02:06:52;102374.66;;;7.04;78.54
48630;BME280;34426;52.180;4.462;2023-02-16T02:09:21;102365.91;;;7.07;78.58
48630;BME280;34426;52.180;4.462;2023-02-16T02:11:50;102370.84;;;7.12;78.23
48630;BME280;34426;52.180;4.462;2023-02-16T02:14:23;102366.13;;;7.12;78.44
48630;BME280;34426;52.180;4.462;2023-02-16T02:16:53;102366.97;;;7.06;78.42
48630;BME280;34426;52.180;4.462;2023-02-16T02:19:19;102367.00;;;7.13;78.44
48630;BME280;34426;52.180;4.462;2023-02-16T02:21:59;102353.28;;;7.11;78.77
48630;BME280;34426;52.180;4.462;2023-02-16T02:25:04;102360.97;;;7.09;78.73
48630;BME280;34426;52.180;4.462;2023-02-16T02:27:38;102339.38;;;7.11;78.37
48630;BME280;34426;52.180;4.462;2023-02-16T02:30:18;102335.75;;;7.11;79.24
48630;BME280;34426;52.180;4.462;2023-02-16T02:32:55;102330.59;;;7.08;78.87
48630;BME280;34426;52.180;4.462;2023-02-16T02:35:45;102334.88;;;7.10;78.84
48630;BME280;34426;52.180;4.462;2023-02-16T02:38:18;102321.81;;;7.04;79.38
48630;BME280;34426;52.180;4.462;2023-02-16T02:40:54;102337.22;;;7.07;79.17
48630;BME280;34426;52.180;4.462;2023-02-16T02:43:26;102333.16;;;7.09;79.08
48630;BME280;34426;52.180;4.462;2023-02-16T02:45:55;102338.06;;;7.07;78.90
48630;BME280;34426;52.180;4.462;2023-02-16T02:48:22;102332.75;;;7.12;78.61
48630;BME280;34426;52.180;4.462;2023-02-16T02:50:50;102340.22;;;7.05;79.05
48630;BME280;34426;52.180;4.462;2023-02-16T02:53:16;102331.44;;;7.08;78.60
48630;BME280;34426;52.180;4.462;2023-02-16T02:55:45;102338.28;;;7.06;79.14
48630;BME280;34426;52.180;4.462;2023-02-16T02:58:14;102328.66;;;7.08;78.76
48630;BME280;34426;52.180;4.462;2023-02-16T03:00:43;102321.16;;;7.02;78.98
48630;BME280;34426;52.180;4.462;2023-02-16T03:03:13;102323.75;;;7.10;78.68
48630;BME280;34426;52.180;4.462;2023-02-16T03:05:44;102324.16;;;7.07;78.76
48630;BME280;34426;52.180;4.462;2023-02-16T03:08:12;102333.16;;;7.09;78.10
48630;BME280;34426;52.180;4.462;2023-02-16T03:10:41;102328.88;;;7.07;78.61
48630;BME280;34426;52.180;4.462;2023-02-16T03:13:12;102320.31;;;7.08;78.54
48630;BME280;34426;52.180;4.462;2023-02-16T03:15:40;102319.22;;;7.03;78.50
48630;BME280;34426;52.180;4.462;2023-02-16T03:18:09;102318.59;;;7.07;78.33
48630;BME280;34426;52.180;4.462;2023-02-16T03:20:38;102305.34;;;7.09;78.37
48630;BME280;34426;52.180;4.462;2023-02-16T03:23:05;102307.47;;;7.07;78.66
48630;BME280;34426;52.180;4.462;2023-02-16T03:25:34;102317.97;;;7.12;77.95
48630;BME280;34426;52.180;4.462;2023-02-16T03:28:03;102312.84;;;7.15;77.57
48630;BME280;34426;52.180;4.462;2023-02-16T03:30:29;102318.59;;;7.07;78.17
48630;BME280;34426;52.180;4.462;2023-02-16T03:32:55;102314.34;;;7.11;78.25
48630;BME280;34426;52.180;4.462;2023-02-16T03:35:22;102314.34;;;7.11;77.88
48630;BME280;34426;52.180;4.462;2023-02-16T03:37:48;102313.50;;;7.17;78.13
48630;BME280;34426;52.180;4.462;2023-02-16T03:40:15;102312.44;;;7.18;77.54
48630;BME280;34426;52.180;4.462;2023-02-16T03:42:47;102301.94;;;7.20;77.34
48630;BME280;34426;52.180;4.462;2023-02-16T03:45:13;102304.94;;;7.19;77.84
48630;BME280;34426;52.180;4.462;2023-02-16T03:47:38;102313.28;;;7.19;77.51
48630;BME280;34426;52.180;4.462;2023-02-16T03:50:05;102315.88;;;7.20;77.63
48630;BME280;34426;52.180;4.462;2023-02-16T03:52:32;102316.50;;;7.22;77.62
48630;BME280;34426;52.180;4.462;2023-02-16T03:54:57;102305.38;;;7.22;77.83
48630;BME280;34426;52.180;4.462;2023-02-16T03:57:23;102310.31;;;7.20;77.82
48630;BME280;34426;52.180;4.462;2023-02-16T03:59:48;102324.22;;;7.20;77.40
48630;BME280;34426;52.180;4.462;2023-02-16T04:02:14;102323.16;;;7.21;77.50
48630;BME280;34426;52.180;4.462;2023-02-16T04:04:39;102321.19;;;7.15;78.17
48630;BME280;34426;52.180;4.462;2023-02-16T04:07:05;102315.22;;;7.18;77.86
48630;BME280;34426;52.180;4.462;2023-02-16T04:09:32;102320.78;;;7.18;77.73
48630;BME280;34426;52.180;4.462;2023-02-16T04:11:57;102320.78;;;7.18;77.68
48630;BME280;34426;52.180;4.462;2023-02-16T04:14:22;102313.94;;;7.21;77.59
48630;BME280;34426;52.180;4.462;2023-02-16T04:16:48;102311.38;;;7.19;77.96
48630;BME280;34426;52.180;4.462;2023-02-16T04:19:13;102311.38;;;7.19;78.35
48630;BME280;34426;52.180;4.462;2023-02-16T04:21:39;102310.72;;;7.17;78.26
48630;BME280;34426;52.180;4.462;2023-02-16T04:24:05;102297.47;;;7.19;78.54
48630;BME280;34426;52.180;4.462;2023-02-16T04:26:32;102304.09;;;7.18;78.24
48630;BME280;34426;52.180;4.462;2023-02-16T04:28:57;102303.00;;;7.13;78.38
48630;BME280;34426;52.180;4.462;2023-02-16T04:31:23;102303.44;;;7.16;78.30
48630;BME280;34426;52.180;4.462;2023-02-16T04:33:48;102305.81;;;7.19;78.45
48630;BME280;34426;52.180;4.462;2023-02-16T04:36:14;102301.53;;;7.23;78.23
48630;BME280;34426;52.180;4.462;2023-02-16T04:38:39;102304.09;;;7.25;78.09
48630;BME280;34426;52.180;4.462;2023-02-16T04:41:04;102303.25;;;7.24;77.72
48630;BME280;34426;52.180;4.462;2023-02-16T04:43:31;102294.69;;;7.26;78.39
48630;BME280;34426;52.180;4.462;2023-02-16T04:45:57;102294.44;;;7.14;78.16
48630;BME280;34426;52.180;4.462;2023-02-16T04:48:22;102302.41;;;7.24;78.01
48630;BME280;34426;52.180;4.462;2023-02-16T04:50:48;102295.13;;;7.23;78.24
48630;BME280;34426;52.180;4.462;2023-02-16T04:53:15;102285.25;;;7.20;77.98
48630;BME280;34426;52.180;4.462;2023-02-16T04:55:44;102283.97;;;7.23;77.89
48630;BME280;34426;52.180;4.462;2023-02-16T04:58:10;102290.19;;;7.25;77.71
48630;BME280;34426;52.180;4.462;2023-02-16T05:00:37;102281.41;;;7.21;77.84
48630;BME280;34426;52.180;4.462;2023-02-16T05:03:02;102284.00;;;7.29;77.68
48630;BME280;34426;52.180;4.462;2023-02-16T05:05:28;102284.41;;;7.26;78.02
48630;BME280;34426;52.180;4.462;2023-02-16T05:07:53;102286.13;;;7.27;77.42
48630;BME280;34426;52.180;4.462;2023-02-16T05:10:19;102297.47;;;7.26;77.66
48630;BME280;34426;52.180;4.462;2023-02-16T05:12:44;102292.56;;;7.28;77.60
48630;BME280;34426;52.180;4.462;2023-02-16T05:15:09;102298.34;;;7.26;77.74
48630;BME280;34426;52.180;4.462;2023-02-16T05:17:36;102303.25;;;7.24;77.60
48630;BME280;34426;52.180;4.462;2023-02-16T05:20:02;102293.59;;;7.20;77.84
48630;BME280;34426;52.180;4.462;2023-02-16T05:22:28;102296.81;;;7.17;77.98
48630;BME280;34426;52.180;4.462;2023-02-16T05:24:53;102291.88;;;7.19;77.93
48630;BME280;34426;52.180;4.462;2023-02-16T05:27:20;102293.41;;;7.22;78.20
48630;BME280;34426;52.180;4.462;2023-02-16T05:29:46;102286.75;;;7.16;78.31
48630;BME280;34426;52.180;4.462;2023-02-16T05:32:12;102286.13;;;7.21;78.24
48630;BME280;34426;52.180;4.462;2023-02-16T05:34:39;102290.38;;;7.17;78.57
48630;BME280;34426;52.180;4.462;2023-02-16T05:37:05;102289.97;;;7.20;78.55
48630;BME280;34426;52.180;4.462;2023-02-16T05:39:31;102292.13;;;7.24;78.67
48630;BME280;34426;52.180;4.462;2023-02-16T05:41:56;102286.56;;;7.24;78.60
48630;BME280;34426;52.180;4.462;2023-02-16T05:44:22;102292.09;;;7.18;78.90
48630;BME280;34426;52.180;4.462;2023-02-16T05:46:47;102284.41;;;7.20;79.01
48630;BME280;34426;52.180;4.462;2023-02-16T05:49:14;102283.56;;;7.26;78.68
48630;BME280;34426;52.180;4.462;2023-02-16T05:51:41;102279.28;;;7.30;78.78
48630;BME280;34426;52.180;4.462;2023-02-16T05:54:08;102286.13;;;7.27;79.09
48630;BME280;34426;52.180;4.462;2023-02-16T05:56:33;102287.84;;;7.28;79.32
48630;BME280;34426;52.180;4.462;2023-02-16T05:58:59;102281.81;;;7.18;79.48
48630;BME280;34426;52.180;4.462;2023-02-16T06:01:25;102294.91;;;7.31;79.60
48630;BME280;34426;52.180;4.462;2023-02-16T06:03:51;102287.88;;;7.35;78.98
48630;BME280;34426;52.180;4.462;2023-02-16T06:06:16;102291.25;;;7.37;79.70
48630;BME280;34426;52.180;4.462;2023-02-16T06:08:43;102288.28;;;7.39;79.65
48630;BME280;34426;52.180;4.462;2023-02-16T06:11:08;102292.13;;;7.38;79.40
48630;BME280;34426;52.180;4.462;2023-02-16T06:13:34;102297.25;;;7.41;79.60
48630;BME280;34426;52.180;4.462;2023-02-16T06:15:59;102296.84;;;7.44;79.65
48630;BME280;34426;52.180;4.462;2023-02-16T06:18:25;102298.56;;;7.51;79.11
48630;BME280;34426;52.180;4.462;2023-02-16T06:20:52;102300.06;;;7.41;79.53
48630;BME280;34426;52.180;4.462;2023-02-16T06:23:20;102289.56;;;7.43;79.66
48630;BME280;34426;52.180;4.462;2023-02-16T06:25:49;102295.56;;;7.53;79.82
48630;BME280;34426;52.180;4.462;2023-02-16T06:28:14;102299.84;;;7.49;79.73
48630;BME280;34426;52.180;4.462;2023-02-16T06:30:40;102294.50;;;7.54;79.49
48630;BME280;34426;52.180;4.462;2023-02-16T06:33:05;102299.44;;;7.52;79.83
48630;BME280;34426;52.180;4.462;2023-02-16T06:35:31;102301.16;;;7.53;80.12
48630;BME280;34426;52.180;4.462;2023-02-16T06:37:56;102309.28;;;7.48;80.01
48630;BME280;34426;52.180;4.462;2023-02-16T06:40:22;102310.56;;;7.58;80.13
48630;BME280;34426;52.180;4.462;2023-02-16T06:42:48;102310.56;;;7.58;79.56
48630;BME280;34426;52.180;4.462;2023-02-16T06:45:14;102305.88;;;7.59;79.66
48630;BME280;34426;52.180;4.462;2023-02-16T06:47:39;102302.00;;;7.60;79.53
48630;BME280;34426;52.180;4.462;2023-02-16T06:50:08;102306.06;;;7.57;79.65
48630;BME280;34426;52.180;4.462;2023-02-16T06:52:34;102311.44;;;7.59;79.88
48630;BME280;34426;52.180;4.462;2023-02-16T06:55:00;102313.16;;;7.60;80.15
48630;BME280;34426;52.180;4.462;2023-02-16T06:57:25;102310.56;;;7.58;80.60
48630;BME280;34426;52.180;4.462;2023-02-16T06:59:52;102320.00;;;7.64;80.06
48630;BME280;34426;52.180;4.462;2023-02-16T07:02:17;102314.00;;;7.60;80.67
48630;BME280;34426;52.180;4.462;2023-02-16T07:04:43;102313.78;;;7.62;80.45
48630;BME280;34426;52.180;4.462;2023-02-16T07:07:08;102312.94;;;7.61;80.52
48630;BME280;34426;52.180;4.462;2023-02-16T07:09:35;102316.78;;;7.60;80.83
48630;BME280;34426;52.180;4.462;2023-02-16T07:12:00;102320.22;;;7.62;80.45
48630;BME280;34426;52.180;4.462;2023-02-16T07:14:26;102318.72;;;7.66;80.50
48630;BME280;34426;52.180;4.462;2023-02-16T07:16:52;102324.94;;;7.62;80.94
48630;BME280;34426;52.180;4.462;2023-02-16T07:19:18;102314.66;;;7.69;80.64
48630;BME280;34426;52.180;4.462;2023-02-16T07:21:44;102327.53;;;7.70;80.92
48630;BME280;34426;52.180;4.462;2023-02-16T07:24:09;102337.38;;;7.73;81.11
48630;BME280;34426;52.180;4.462;2023-02-16T07:26:35;102341.66;;;7.75;80.54
48630;BME280;34426;52.180;4.462;2023-02-16T07:29:00;102336.53;;;7.72;80.85
48630;BME280;34426;52.180;4.462;2023-02-16T07:31:26;102344.66;;;7.74;80.76
48630;BME280;34426;52.180;4.462;2023-02-16T07:33:52;102342.50;;;7.69;80.89
48630;BME280;34426;52.180;4.462;2023-02-16T07:36:18;102346.56;;;7.66;80.82
48630;BME280;34426;52.180;4.462;2023-02-16T07:38:43;102342.31;;;7.77;81.24
48630;BME280;34426;52.180;4.462;2023-02-16T07:41:09;102342.31;;;7.77;81.12
48630;BME280;34426;52.180;4.462;2023-02-16T07:43:35;102349.38;;;7.73;80.17
48630;BME280;34426;52.180;4.462;2023-02-16T07:46:01;102354.31;;;7.78;80.51
48630;BME280;34426;52.180;4.462;2023-02-16T07:48:26;102360.31;;;7.75;80.83
48630;BME280;34426;52.180;4.462;2023-02-16T07:50:53;102361.16;;;7.75;80.99
48630;BME280;34426;52.180;4.462;2023-02-16T07:53:19;102365.00;;;7.74;81.43
48630;BME280;34426;52.180;4.462;2023-02-16T07:55:46;102363.06;;;7.81;80.92
48630;BME280;34426;52.180;4.462;2023-02-16T07:58:12;102359.00;;;7.84;81.29
48630;BME280;34426;52.180;4.462;2023-02-16T08:00:38;102364.56;;;7.90;80.78
48630;BME280;34426;52.180;4.462;2023-02-16T08:03:03;102365.66;;;7.89;80.97
48630;BME280;34426;52.180;4.462;2023-02-16T08:05:29;102362.22;;;7.87;81.90
48630;BME280;34426;52.180;4.462;2023-02-16T08:07:55;102368.88;;;7.86;82.05
48630;BME280;34426;52.180;4.462;2023-02-16T08:10:21;102374.84;;;7.83;82.35
48630;BME280;34426;52.180;4.462;2023-02-16T08:12:47;102377.44;;;7.78;82.53
48630;BME280;34426;52.180;4.462;2023-02-16T08:15:12;102374.22;;;7.75;83.15
48630;BME280;34426;52.180;4.462;2023-02-16T08:17:38;102373.38;;;7.74;83.63
48630;BME280;34426;52.180;4.462;2023-02-16T08:20:05;102377.44;;;7.78;84.23
48630;BME280;34426;52.180;4.462;2023-02-16T08:22:31;102371.66;;;7.73;84.65
48630;BME280;34426;52.180;4.462;2023-02-16T08:24:58;102369.94;;;7.79;85.03
48630;BME280;34426;52.180;4.462;2023-02-16T08:27:23;102379.16;;;7.79;85.52
48630;BME280;34426;52.180;4.462;2023-02-16T08:29:49;102377.22;;;7.86;85.82
48630;BME280;34426;52.180;4.462;2023-02-16T08:32:14;102380.66;;;7.88;85.93
48630;BME280;34426;52.180;4.462;2023-02-16T08:34:40;102367.78;;;7.87;86.33
48630;BME280;34426;52.180;4.462;2023-02-16T08:37:05;102352.16;;;7.80;86.77
48630;BME280;34426;52.180;4.462;2023-02-16T08:39:31;102363.28;;;7.93;86.66
48630;BME280;34426;52.180;4.462;2023-02-16T08:41:59;102370.59;;;8.00;85.97
48630;BME280;34426;52.180;4.462;2023-02-16T08:44:26;102381.31;;;8.04;86.17
48630;BME280;34426;52.180;4.462;2023-02-16T08:46:53;102369.31;;;7.96;85.81
48630;BME280;34426;52.180;4.462;2023-02-16T08:49:20;102361.81;;;8.04;86.29
48630;BME280;34426;52.180;4.462;2023-02-16T08:51:48;102361.16;;;8.08;86.46
48630;BME280;34426;52.180;4.462;2023-02-16T08:54:16;102359.44;;;8.14;86.56
48630;BME280;34426;52.180;4.462;2023-02-16T08:56:41;102364.16;;;8.07;86.75
48630;BME280;34426;52.180;4.462;2023-02-16T08:59:08;102352.38;;;8.11;86.44
48630;BME280;34426;52.180;4.462;2023-02-16T09:01:33;102356.88;;;8.06;86.08
48630;BME280;34426;52.180;4.462;2023-02-16T09:04:00;102359.44;;;8.00;85.93
48630;BME280;34426;52.180;4.462;2023-02-16T09:06:26;102352.59;;;7.96;86.18
48630;BME280;34426;52.180;4.462;2023-02-16T09:08:53;102365.88;;;7.94;86.43
48630;BME280;34426;52.180;4.462;2023-02-16T09:11:20;102368.88;;;7.99;86.24
48630;BME280;34426;52.180;4.462;2023-02-16T09:13:46;102361.59;;;8.05;85.75
48630;BME280;34426;52.180;4.462;2023-02-16T09:16:16;102364.81;;;8.09;85.63
48630;BME280;34426;52.180;4.462;2023-02-16T09:18:44;102364.59;;;8.10;85.40
48630;BME280;34426;52.180;4.462;2023-02-16T09:21:12;102366.31;;;8.11;85.96
48630;BME280;34426;52.180;4.462;2023-02-16T09:23:38;102367.59;;;8.22;85.15
48630;BME280;34426;52.180;4.462;2023-02-16T09:26:04;102358.78;;;8.25;85.13
48630;BME280;34426;52.180;4.462;2023-02-16T09:28:29;102361.56;;;8.25;85.47
48630;BME280;34426;52.180;4.462;2023-02-16T09:30:55;102370.59;;;8.33;85.16
48630;BME280;34426;52.180;4.462;2023-02-16T09:33:24;102360.31;;;8.41;84.99
48630;BME280;34426;52.180;4.462;2023-02-16T09:35:49;102367.59;;;8.48;84.87
48630;BME280;34426;52.180;4.462;2023-02-16T09:38:15;102355.56;;;8.54;85.10
48630;BME280;34426;52.180;4.462;2023-02-16T09:40:40;102343.53;;;8.60;84.65
48630;BME280;34426;52.180;4.462;2023-02-16T09:43:11;102348.22;;;8.66;84.51
48630;BME280;34426;52.180;4.462;2023-02-16T09:45:42;102341.13;;;8.71;83.72
48630;BME280;34426;52.180;4.462;2023-02-16T09:48:19;102349.50;;;8.71;83.95
48630;BME280;34426;52.180;4.462;2023-02-16T09:50:49;102356.34;;;8.75;83.70
48630;BME280;34426;52.180;4.462;2023-02-16T09:53:20;102349.69;;;8.76;83.53
48630;BME280;34426;52.180;4.462;2023-02-16T09:55:51;102352.50;;;8.76;84.15
48630;BME280;34426;52.180;4.462;2023-02-16T09:58:21;102349.72;;;8.69;84.46
48630;BME280;34426;52.180;4.462;2023-02-16T10:00:48;102352.50;;;8.76;83.76
48630;BME280;34426;52.180;4.462;2023-02-16T10:03:29;102340.03;;;8.78;83.84
48630;BME280;34426;52.180;4.462;2023-02-16T10:06:05;102342.16;;;8.83;84.55
48630;BME280;34426;52.180;4.462;2023-02-16T10:08:42;102343.63;;;8.92;83.74
48630;BME280;34426;52.180;4.462;2023-02-16T10:11:13;102338.25;;;8.97;83.75
48630;BME280;34426;52.180;4.462;2023-02-16T10:13:42;102341.69;;;8.99;83.82
48630;BME280;34426;52.180;4.462;2023-02-16T10:16:13;102331.50;;;9.11;83.60
48630;BME280;34426;52.180;4.462;2023-02-16T10:18:44;102342.00;;;9.22;84.14
48630;BME280;34426;52.180;4.462;2023-02-16T10:21:16;102339.84;;;9.24;82.52
48630;BME280;34426;52.180;4.462;2023-02-16T10:23:45;102339.84;;;9.24;82.59
48630;BME280;34426;52.180;4.462;2023-02-16T10:26:18;102339.84;;;9.24;82.96
48630;BME280;34426;52.180;4.462;2023-02-16T10:28:48;102347.09;;;9.32;82.29
48630;BME280;34426;52.180;4.462;2023-02-16T10:31:19;102336.16;;;9.30;82.62
48630;BME280;34426;52.180;4.462;2023-02-16T10:33:58;102327.78;;;9.30;82.58
48630;BME280;34426;52.180;4.462;2023-02-16T10:36:45;102336.97;;;9.38;83.63
48630;BME280;34426;52.180;4.462;2023-02-16T10:39:17;102325.09;;;9.49;82.96
48630;BME280;34426;52.180;4.462;2023-02-16T10:41:46;102332.72;;;9.60;83.18
48630;BME280;34426;52.180;4.462;2023-02-16T10:44:19;102333.09;;;9.70;82.29
48630;BME280;34426;52.180;4.462;2023-02-16T10:46:48;102334.53;;;9.79;81.89
48630;BME280;34426;52.180;4.462;2023-02-16T10:49:18;102338.13;;;9.86;81.83
48630;BME280;34426;52.180;4.462;2023-02-16T10:51:47;102334.25;;;9.87;81.42
48630;BME280;34426;52.180;4.462;2023-02-16T10:54:15;102333.81;;;9.90;81.18
48630;BME280;34426;52.180;4.462;2023-02-16T10:56:49;102335.94;;;9.95;81.41
48630;BME280;34426;52.180;4.462;2023-02-16T10:59:18;102328.22;;;9.90;82.29
48630;BME280;34426;52.180;4.462;2023-02-16T11:01:45;102324.97;;;9.93;82.65
48630;BME280;34426;52.180;4.462;2023-02-16T11:04:36;102316.34;;;9.95;81.46
48630;BME280;34426;52.180;4.462;2023-02-16T11:07:07;102323.34;;;10.04;82.14
48630;BME280;34426;52.180;4.462;2023-02-16T11:09:33;102327.63;;;10.07;82.06
48630;BME280;34426;52.180;4.462;2023-02-16T11:11:59;102319.88;;;10.09;81.74
48630;BME280;34426;52.180;4.462;2023-02-16T11:14:27;102318.06;;;10.21;81.08
48630;BME280;34426;52.180;4.462;2023-02-16T11:17:03;102312.47;;;10.21;81.65
48630;BME280;34426;52.180;4.462;2023-02-16T11:19:29;102318.06;;;10.21;80.99
48630;BME280;34426;52.180;4.462;2023-02-16T11:21:55;102307.22;;;10.31;81.10
48630;BME280;34426;52.180;4.462;2023-02-16T11:24:27;102308.06;;;10.31;80.31
48630;BME280;34426;52.180;4.462;2023-02-16T11:27:01;102304.66;;;10.48;80.18
48630;BME280;34426;52.180;4.462;2023-02-16T11:29:27;102302.28;;;10.70;79.87
48630;BME280;34426;52.180;4.462;2023-02-16T11:31:54;102298.53;;;10.76;78.45
48630;BME280;34426;52.180;4.462;2023-02-16T11:34:27;102289.81;;;10.84;77.59
48630;BME280;34426;52.180;4.462;2023-02-16T11:37:00;102289.34;;;10.87;76.25
48630;BME280;34426;52.180;4.462;2023-02-16T11:39:33;102290.81;;;10.89;76.73
48630;BME280;34426;52.180;4.462;2023-02-16T11:42:02;102283.47;;;11.07;76.83
48630;BME280;34426;52.180;4.462;2023-02-16T11:44:30;102288.44;;;11.23;76.62
48630;BME280;34426;52.180;4.462;2023-02-16T11:46:57;102285.41;;;11.24;76.01
48630;BME280;34426;52.180;4.462;2023-02-16T11:49:32;102286.06;;;11.50;76.22
48630;BME280;34426;52.180;4.462;2023-02-16T11:51:58;102276.25;;;11.59;73.79
48630;BME280;34426;52.180;4.462;2023-02-16T11:54:24;102271.47;;;11.59;72.23
48630;BME280;34426;52.180;4.462;2023-02-16T11:57:05;102266.47;;;11.50;71.17
48630;BME280;34426;52.180;4.462;2023-02-16T11:59:34;102256.47;;;11.54;70.25
48630;BME280;34426;52.180;4.462;2023-02-16T12:02:24;102258.66;;;11.52;70.44
48630;BME280;34426;52.180;4.462;2023-02-16T12:05:07;102252.97;;;11.58;70.01
48630;BME280;34426;52.180;4.462;2023-02-16T12:07:39;102258.66;;;11.52;70.01
48630;BME280;34426;52.180;4.462;2023-02-16T12:10:12;102250.88;;;11.54;69.57
48630;BME280;34426;52.180;4.462;2023-02-16T12:12:53;102248.97;;;11.66;69.53
48630;BME280;34426;52.180;4.462;2023-02-16T12:15:26;102245.69;;;11.81;69.89
48630;BME280;34426;52.180;4.462;2023-02-16T12:18:21;102244.03;;;11.50;69.23
48630;BME280;34426;52.180;4.462;2023-02-16T12:20:54;102246.88;;;11.61;70.59
48630;BME280;34426;52.180;4.462;2023-02-16T12:23:31;102241.66;;;11.65;69.67
48630;BME280;34426;52.180;4.462;2023-02-16T12:26:07;102236.25;;;11.52;70.10
48630;BME280;34426;52.180;4.462;2023-02-16T12:28:46;102244.88;;;11.39;71.07
48630;BME280;34426;52.180;4.462;2023-02-16T12:31:21;102242.41;;;11.30;71.53
48630;BME280;34426;52.180;4.462;2023-02-16T12:33:56;102249.31;;;11.16;72.37
48630;BME280;34426;52.180;4.462;2023-02-16T12:36:40;102242.47;;;11.12;73.05
48630;BME280;34426;52.180;4.462;2023-02-16T12:39:16;102240.13;;;11.39;72.76
48630;BME280;34426;52.180;4.462;2023-02-16T12:41:49;102220.13;;;11.36;72.74
48630;BME280;34426;52.180;4.462;2023-02-16T12:44:32;102229.41;;;11.48;73.24
48630;BME280;34426;52.180;4.462;2023-02-16T12:47:02;102216.63;;;11.52;73.27
48630;BME280;34426;52.180;4.462;2023-02-16T12:49:31;102223.53;;;11.38;73.11
48630;BME280;34426;52.180;4.462;2023-02-16T12:52:03;102207.31;;;11.16;73.88
48630;BME280;34426;52.180;4.462;2023-02-16T12:54:36;102212.16;;;11.09;74.57
48630;BME280;34426;52.180;4.462;2023-02-16T12:57:07;102202.19;;;11.13;75.08
48630;BME280;34426;52.180;4.462;2023-02-16T12:59:40;102192.84;;;11.19;74.63
48630;BME280;34426;52.180;4.462;2023-02-16T13:02:14;102184.19;;;11.21;74.55
48630;BME280;34426;52.180;4.462;2023-02-16T13:04:47;102174.47;;;11.23;74.42